createdAt,value
2022-09-04T00:01:30.753Z,2.17
2022-09-04T00:04:08.016Z,2.53
2022-09-04T00:06:38.422Z,2.00
2022-09-04T00:09:28.520Z,2.40
2022-09-04T00:12:08.940Z,2.20
2022-09-04T00:14:35.712Z,2.47
2022-09-04T00:17:06.093Z,2.57
2022-09-04T00:19:43.386Z,2.57
2022-09-04T00:22:17.720Z,2.30
2022-09-04T00:24:49.725Z,2.70
2022-09-04T00:27:28.163Z,2.80
2022-09-04T00:29:58.690Z,2.53
2022-09-04T00:32:30.209Z,3.30
2022-09-04T00:35:23.341Z,3.13
2022-09-04T00:38:10.294Z,3.70
2022-09-04T00:40:44.812Z,3.20
2022-09-04T00:43:29.965Z,3.27
2022-09-04T00:46:05.606Z,3.60
2022-09-04T00:48:41.431Z,3.27
2022-09-04T00:51:23.095Z,3.10
2022-09-04T00:53:59.019Z,3.03
2022-09-04T00:56:44.458Z,3.30
2022-09-04T00:59:31.458Z,2.63
2022-09-04T01:02:03.068Z,3.33
2022-09-04T01:04:38.354Z,3.07
2022-09-04T01:07:34.170Z,3.20
2022-09-04T01:10:24.153Z,3.30
2022-09-04T01:12:50.877Z,3.07
2022-09-04T01:15:24.749Z,3.27
2022-09-04T01:17:56.578Z,3.00
2022-09-04T01:20:43.203Z,2.97
2022-09-04T01:23:29.963Z,2.83
2022-09-04T01:26:00.637Z,2.97
2022-09-04T01:28:50.813Z,3.03
2022-09-04T01:31:24.487Z,2.80
2022-09-04T01:34:11.698Z,2.83
2022-09-04T01:36:45.700Z,3.23
2022-09-04T01:39:12.513Z,3.03
2022-09-04T01:41:46.197Z,3.07
2022-09-04T01:44:13.484Z,2.93
2022-09-04T01:46:40.197Z,3.03
2022-09-04T01:49:22.021Z,3.10
2022-09-04T01:51:53.280Z,2.90
2022-09-04T01:54:43.905Z,2.87
2022-09-04T01:57:22.793Z,3.00
2022-09-04T02:00:18.635Z,2.97
2022-09-04T02:02:45.233Z,2.40
2022-09-04T02:05:26.836Z,2.63
2022-09-04T02:08:09.609Z,2.60
2022-09-04T02:10:51.235Z,3.00
2022-09-04T02:13:36.737Z,2.80
2022-09-04T02:16:09.498Z,3.50
2022-09-04T02:18:48.508Z,2.80
2022-09-04T02:21:24.259Z,3.30
2022-09-04T02:23:52.239Z,3.07
2022-09-04T02:26:37.923Z,2.60
2022-09-04T02:29:13.604Z,2.80
2022-09-04T02:31:46.614Z,3.00
2022-09-04T02:34:18.046Z,2.90
2022-09-04T02:37:07.792Z,3.17
2022-09-04T02:40:01.095Z,2.93
2022-09-04T02:42:41.276Z,2.70
2022-09-04T02:45:07.932Z,2.67
2022-09-04T02:47:47.915Z,2.90
2022-09-04T02:50:26.387Z,2.93
2022-09-04T02:53:03.356Z,2.40
2022-09-04T02:55:48.635Z,2.50
2022-09-04T02:58:30.663Z,2.77
2022-09-04T03:01:07.676Z,2.83
2022-09-04T03:03:48.177Z,2.90
2022-09-04T03:06:25.325Z,2.60
2022-09-04T03:08:53.753Z,2.30
2022-09-04T03:11:31.336Z,2.60
2022-09-04T03:14:12.437Z,2.70
2022-09-04T03:16:52.109Z,2.33
2022-09-04T03:19:20.824Z,2.70
2022-09-04T03:21:53.637Z,2.67
2022-09-04T03:24:26.341Z,2.50
2022-09-04T03:26:55.086Z,2.50
2022-09-04T03:29:34.284Z,2.50
2022-09-04T03:32:15.010Z,2.80
2022-09-04T03:34:52.339Z,2.80
2022-09-04T03:37:38.304Z,2.60
2022-09-04T03:40:21.256Z,2.73
2022-09-04T03:42:59.243Z,2.63
2022-09-04T03:45:44.705Z,2.70
2022-09-04T03:48:11.294Z,2.63
2022-09-04T03:50:42.135Z,2.80
2022-09-04T03:53:27.636Z,2.67
2022-09-04T03:56:02.611Z,2.90
2022-09-04T03:58:32.340Z,2.90
2022-09-04T04:01:06.597Z,2.80
2022-09-04T04:03:44.479Z,2.80
2022-09-04T04:06:11.068Z,3.10
2022-09-04T04:08:46.756Z,2.53
2022-09-04T04:11:16.249Z,2.77
2022-09-04T04:13:58.192Z,2.70
2022-09-04T04:16:28.184Z,2.90
2022-09-04T04:19:17.956Z,2.70
2022-09-04T04:22:03.395Z,2.70
2022-09-04T04:24:49.038Z,2.50
2022-09-04T04:27:21.988Z,3.07
2022-09-04T04:29:53.296Z,2.90
2022-09-04T04:32:33.425Z,2.80
2022-09-04T04:35:14.236Z,2.90
2022-09-04T04:37:56.321Z,2.90
2022-09-04T04:40:50.325Z,3.10
2022-09-04T04:43:16.969Z,3.13
2022-09-04T04:46:01.933Z,3.20
2022-09-04T04:48:31.953Z,2.67
2022-09-04T04:51:12.189Z,2.70
2022-09-04T04:53:57.445Z,3.13
2022-09-04T04:56:24.097Z,3.13
2022-09-04T04:58:55.458Z,2.97
2022-09-04T05:01:33.150Z,2.73
2022-09-04T05:04:05.198Z,3.53
2022-09-04T05:06:58.323Z,3.00
2022-09-04T05:09:28.168Z,3.60
2022-09-04T05:12:13.872Z,3.20
2022-09-04T05:14:50.317Z,3.00
2022-09-04T05:17:19.752Z,3.33
2022-09-04T05:20:05.448Z,2.97
2022-09-04T05:22:35.088Z,3.20
2022-09-04T05:25:19.619Z,2.80
2022-09-04T05:27:46.241Z,3.00
2022-09-04T05:30:16.990Z,3.20
2022-09-04T05:32:55.592Z,3.10
2022-09-04T05:36:00.660Z,2.90
2022-09-04T05:38:46.072Z,2.87
2022-09-04T05:41:21.697Z,3.20
2022-09-04T05:44:15.125Z,3.27
2022-09-04T05:46:51.984Z,3.07
2022-09-04T05:49:37.851Z,2.90
2022-09-04T05:52:23.176Z,2.80
2022-09-04T05:54:55.677Z,2.80
2022-09-04T05:57:29.443Z,2.70
2022-09-04T06:00:05.105Z,2.63
2022-09-04T06:02:39.367Z,2.47
2022-09-04T06:05:09.254Z,2.70
2022-09-04T06:07:45.201Z,2.43
2022-09-04T06:10:27.737Z,2.40
2022-09-04T06:13:13.615Z,2.30
2022-09-04T06:16:00.642Z,2.30
2022-09-04T06:18:30.340Z,2.27
2022-09-04T06:21:15.371Z,2.23
2022-09-04T06:23:58.587Z,2.40
2022-09-04T06:26:31.457Z,2.20
2022-09-04T06:29:23.890Z,2.50
2022-09-04T06:31:50.545Z,2.30
2022-09-04T06:34:26.619Z,2.00
2022-09-04T06:37:01.486Z,2.73
2022-09-04T06:39:40.449Z,2.17
2022-09-04T06:42:16.545Z,2.50
2022-09-04T06:44:46.272Z,2.60
2022-09-04T06:47:29.537Z,2.23
2022-09-04T06:50:01.980Z,1.90
2022-09-04T06:52:46.121Z,1.97
2022-09-04T06:55:21.900Z,2.00
2022-09-04T06:58:05.468Z,1.80
2022-09-04T07:00:42.679Z,1.57
2022-09-04T07:03:12.417Z,1.47
2022-09-04T07:05:59.156Z,1.47
2022-09-04T07:08:34.885Z,1.30
2022-09-04T07:11:16.862Z,1.50
2022-09-04T07:13:43.504Z,1.40
2022-09-04T07:16:10.273Z,1.07
2022-09-04T07:18:55.824Z,1.30
2022-09-04T07:21:30.398Z,1.10
2022-09-04T07:24:23.490Z,1.10
2022-09-04T07:27:01.896Z,1.40
2022-09-04T07:29:34.906Z,1.17
2022-09-04T07:32:05.592Z,1.20
2022-09-04T07:34:41.989Z,1.35
2022-09-04T07:37:27.920Z,1.10
2022-09-04T07:40:00.308Z,1.23
2022-09-04T07:42:31.191Z,1.63
2022-09-04T07:44:59.270Z,1.70
2022-09-04T07:47:26.821Z,1.40
2022-09-04T07:49:53.440Z,1.50
2022-09-04T07:52:27.073Z,1.50
2022-09-04T07:54:56.744Z,1.47
2022-09-04T07:57:37.972Z,1.77
2022-09-04T08:00:10.655Z,1.40
2022-09-04T08:02:46.483Z,1.67
2022-09-04T08:05:24.287Z,1.50
2022-09-04T08:08:03.886Z,1.67
2022-09-04T08:10:31.608Z,1.50
2022-09-04T08:13:09.943Z,1.48
2022-09-04T08:15:40.908Z,1.58
2022-09-04T08:18:24.637Z,1.60
2022-09-04T08:21:11.521Z,1.48
2022-09-04T08:23:56.954Z,1.73
2022-09-04T08:26:27.339Z,1.65
2022-09-04T08:29:03.651Z,1.80
2022-09-04T08:31:30.305Z,1.55
2022-09-04T08:34:15.813Z,1.70
2022-09-04T08:37:02.848Z,1.80
2022-09-04T08:39:29.554Z,1.58
2022-09-04T08:42:07.875Z,1.55
2022-09-04T08:44:34.477Z,1.48
2022-09-04T08:47:01.950Z,1.73
2022-09-04T08:49:31.384Z,1.65
2022-09-04T08:51:58.008Z,1.70
2022-09-04T08:54:43.673Z,2.10
2022-09-04T08:57:23.925Z,1.65
2022-09-04T09:00:10.871Z,1.65
2022-09-04T09:02:56.444Z,1.50
2022-09-04T09:05:32.570Z,1.55
2022-09-04T09:08:01.945Z,1.80
2022-09-04T09:10:44.497Z,1.50
2022-09-04T09:13:14.224Z,1.58
2022-09-04T09:15:59.701Z,1.55
2022-09-04T09:18:26.381Z,1.60
2022-09-04T09:20:55.634Z,1.60
2022-09-04T09:23:31.102Z,1.73
2022-09-04T09:26:06.502Z,1.55
2022-09-04T09:28:39.143Z,1.77
2022-09-04T09:31:25.058Z,1.38
2022-09-04T09:34:11.539Z,1.50
2022-09-04T09:37:03.042Z,1.27
2022-09-04T09:39:38.837Z,1.33
2022-09-04T09:42:10.246Z,1.50
2022-09-04T09:44:42.659Z,1.67
2022-09-04T09:47:21.799Z,1.50
2022-09-04T09:49:48.398Z,1.40
2022-09-04T09:52:42.071Z,1.77
2022-09-04T09:55:18.118Z,1.63
2022-09-04T09:58:03.485Z,1.40
2022-09-04T10:00:55.346Z,1.65
2022-09-04T10:03:24.589Z,1.85
2022-09-04T10:06:06.982Z,1.40
2022-09-04T10:08:52.731Z,1.60
2022-09-04T10:11:19.831Z,1.48
2022-09-04T10:13:56.053Z,1.70
2022-09-04T10:16:42.825Z,1.80
2022-09-04T10:19:11.132Z,1.75
2022-09-04T10:21:42.116Z,1.65
2022-09-04T10:24:27.751Z,1.60
2022-09-04T10:26:57.549Z,1.67
2022-09-04T10:29:37.235Z,1.83
2022-09-04T10:32:06.759Z,3.63
2022-09-04T10:34:54.449Z,1.73
2022-09-04T10:37:39.670Z,1.85
2022-09-04T10:40:30.936Z,1.80
2022-09-04T10:43:11.309Z,1.77
2022-09-04T10:45:56.376Z,1.98
2022-09-04T10:48:26.543Z,1.92
2022-09-04T10:51:23.336Z,1.80
2022-09-04T10:53:52.862Z,1.88
2022-09-04T10:56:23.182Z,1.90
2022-09-04T10:59:10.453Z,1.85
2022-09-04T11:01:55.523Z,1.73
2022-09-04T11:04:28.249Z,1.80
2022-09-04T11:07:01.288Z,1.63
2022-09-04T11:09:28.487Z,1.70
2022-09-04T11:12:06.239Z,1.77
2022-09-04T11:15:03.709Z,1.67
2022-09-04T11:17:30.734Z,1.30
2022-09-04T11:19:57.649Z,1.67
2022-09-04T11:22:39.416Z,1.80
2022-09-04T11:25:24.793Z,2.10
2022-09-04T11:28:00.388Z,1.70
2022-09-04T11:30:39.152Z,1.70
2022-09-04T11:33:16.128Z,1.50
2022-09-04T11:35:55.002Z,1.70
2022-09-04T11:38:43.757Z,1.67
2022-09-04T11:41:15.665Z,1.77
2022-09-04T11:43:49.475Z,1.67
2022-09-04T11:46:18.872Z,1.70
2022-09-04T11:48:54.592Z,1.60
2022-09-04T11:51:42.996Z,1.42
2022-09-04T11:54:29.844Z,1.70
2022-09-04T11:57:15.180Z,1.73
2022-09-04T12:00:01.066Z,1.50
2022-09-04T12:02:30.451Z,1.50
2022-09-04T12:05:03.532Z,1.52
2022-09-04T12:07:42.886Z,1.77
2022-09-04T12:10:13.793Z,1.75
2022-09-04T12:13:19.135Z,1.50
2022-09-04T12:15:54.700Z,1.35
2022-09-04T12:18:32.264Z,1.42
2022-09-04T12:21:18.269Z,1.52
2022-09-04T12:24:10.406Z,1.50
2022-09-04T12:26:37.022Z,1.55
2022-09-04T12:29:28.375Z,1.50
2022-09-04T12:32:07.313Z,1.40
2022-09-04T12:34:54.581Z,1.45
2022-09-04T12:37:43.668Z,1.58
2022-09-04T12:40:29.405Z,1.33
2022-09-04T12:43:03.690Z,1.48
2022-09-04T12:45:36.608Z,1.50
2022-09-04T12:48:03.413Z,1.50
2022-09-04T12:50:30.436Z,1.40
2022-09-04T12:53:05.783Z,1.50
2022-09-04T12:55:42.101Z,1.20
2022-09-04T12:58:08.676Z,1.60
2022-09-04T13:00:47.245Z,1.70
2022-09-04T13:03:25.616Z,1.55
2022-09-04T13:06:08.812Z,1.73
2022-09-04T13:08:54.258Z,1.40
2022-09-04T13:11:28.502Z,1.58
2022-09-04T13:14:06.387Z,1.45
2022-09-04T13:16:38.747Z,1.48
2022-09-04T13:19:23.955Z,1.50
2022-09-04T13:22:09.489Z,1.40
2022-09-04T13:24:45.422Z,1.17
2022-09-04T13:27:21.330Z,1.50
2022-09-04T13:29:54.673Z,1.55
2022-09-04T13:32:30.925Z,1.60
2022-09-04T13:35:09.356Z,1.50
2022-09-04T13:37:48.724Z,1.20
2022-09-04T13:40:30.533Z,1.40
2022-09-04T13:43:06.099Z,1.50
2022-09-04T13:45:44.381Z,1.50
2022-09-04T13:48:13.130Z,1.80
2022-09-04T13:50:39.715Z,1.35
2022-09-04T13:53:11.278Z,1.63
2022-09-04T13:55:39.486Z,1.50
2022-09-04T13:58:23.835Z,1.80
2022-09-04T14:00:53.149Z,1.50
2022-09-04T14:03:30.452Z,1.40
2022-09-04T14:05:58.200Z,1.58
2022-09-04T14:08:25.289Z,1.52
2022-09-04T14:11:10.851Z,1.70
2022-09-04T14:13:57.766Z,1.52
2022-09-04T14:16:24.521Z,1.50
2022-09-04T14:19:17.587Z,1.33
2022-09-04T14:21:47.448Z,1.50
2022-09-04T14:24:17.955Z,1.30
2022-09-04T14:27:00.664Z,1.17
2022-09-04T14:29:36.829Z,1.67
2022-09-04T14:32:14.244Z,1.52
2022-09-04T14:35:02.347Z,1.45
2022-09-04T14:37:48.484Z,1.38
2022-09-04T14:40:15.110Z,1.40
2022-09-04T14:42:46.693Z,1.30
2022-09-04T14:45:19.092Z,1.42
2022-09-04T14:47:47.486Z,1.25
2022-09-04T14:50:17.190Z,1.48
2022-09-04T14:52:45.737Z,1.55
2022-09-04T14:55:17.892Z,1.30
2022-09-04T14:57:55.327Z,1.35
2022-09-04T15:00:23.496Z,1.30
2022-09-04T15:03:08.836Z,1.25
2022-09-04T15:05:55.761Z,1.30
2022-09-04T15:08:29.827Z,1.08
2022-09-04T15:11:00.569Z,1.27
2022-09-04T15:13:27.228Z,1.70
2022-09-04T15:16:10.656Z,1.42
2022-09-04T15:18:48.398Z,1.63
2022-09-04T15:21:21.122Z,1.33
2022-09-04T15:23:52.665Z,1.40
2022-09-04T15:26:28.088Z,1.45
2022-09-04T15:28:59.372Z,1.55
2022-09-04T15:31:31.418Z,1.40
2022-09-04T15:34:06.337Z,1.65
2022-09-04T15:36:35.028Z,1.20
2022-09-04T15:39:06.989Z,1.30
2022-09-04T15:41:39.125Z,1.42
2022-09-04T15:44:20.249Z,1.40
2022-09-04T15:46:50.082Z,1.50
2022-09-04T15:49:26.968Z,1.27
2022-09-04T15:52:03.313Z,1.20
2022-09-04T15:54:34.579Z,1.40
2022-09-04T15:57:08.439Z,1.20
2022-09-04T15:59:43.754Z,1.20
2022-09-04T16:02:23.543Z,1.40
2022-09-04T16:05:05.696Z,1.20
2022-09-04T16:07:40.355Z,1.53
2022-09-04T16:10:09.815Z,1.60
2022-09-04T16:12:59.623Z,1.30
2022-09-04T16:15:34.633Z,1.30
2022-09-04T16:18:08.900Z,1.67
2022-09-04T16:20:59.061Z,1.13
2022-09-04T16:23:31.616Z,1.50
2022-09-04T16:25:59.917Z,1.40
2022-09-04T16:28:31.792Z,1.50
2022-09-04T16:31:02.857Z,1.50
2022-09-04T16:33:35.336Z,1.50
2022-09-04T16:36:05.661Z,1.23
2022-09-04T16:38:35.363Z,1.30
2022-09-04T16:41:09.729Z,1.30
2022-09-04T16:43:36.601Z,1.50
2022-09-04T16:46:12.716Z,1.60
2022-09-04T16:48:45.677Z,1.30
2022-09-04T16:51:39.319Z,1.57
2022-09-04T16:54:13.483Z,1.47
2022-09-04T16:56:42.912Z,1.30
2022-09-04T16:59:17.467Z,1.30
2022-09-04T17:01:47.004Z,1.30
2022-09-04T17:04:33.753Z,1.40
2022-09-04T17:07:08.818Z,1.87
2022-09-04T17:09:41.808Z,1.67
2022-09-04T17:12:24.037Z,1.93
2022-09-04T17:14:53.793Z,1.60
2022-09-04T17:17:31.221Z,1.57
2022-09-04T17:20:22.527Z,1.40
2022-09-04T17:28:18.993Z,1.80
2022-09-04T17:29:02.020Z,1.50
2022-09-04T17:29:11.656Z,1.50
2022-09-04T17:31:38.520Z,1.50
2022-09-04T17:40:36.662Z,1.50
2022-09-04T17:40:40.111Z,1.67
2022-09-04T17:41:36.463Z,2.00
2022-09-04T17:44:01.977Z,2.30
2022-09-04T17:46:36.788Z,2.03
2022-09-04T17:49:17.668Z,1.90
2022-09-04T17:51:49.154Z,2.20
2022-09-04T17:54:17.267Z,2.00
2022-09-04T17:56:47.834Z,2.17
2022-09-04T17:59:45.443Z,1.93
2022-09-04T18:02:19.077Z,1.57
2022-09-04T18:05:06.040Z,1.93
2022-09-04T18:08:08.410Z,1.90
2022-09-04T18:10:20.558Z,1.73
2022-09-04T18:12:52.179Z,1.73
2022-09-04T18:15:33.397Z,2.37
2022-09-04T18:18:01.380Z,2.00
2022-09-04T18:20:37.790Z,2.10
2022-09-04T18:23:22.754Z,2.30
2022-09-04T18:26:10.754Z,2.20
2022-09-04T18:28:59.014Z,2.03
2022-09-04T18:37:10.076Z,2.13
2022-09-04T18:37:24.340Z,1.87
2022-09-04T18:37:44.602Z,2.43
2022-09-04T18:40:09.513Z,2.47
2022-09-04T18:50:28.732Z,2.50
2022-09-04T18:50:32.525Z,2.60
2022-09-04T18:50:35.749Z,2.50
2022-09-04T18:51:21.801Z,2.07
2022-09-04T18:53:58.502Z,2.10
2022-09-04T18:56:28.550Z,2.07
2022-09-04T18:59:01.812Z,1.83
2022-09-04T19:01:35.143Z,2.17
2022-09-04T19:04:19.129Z,2.30
2022-09-04T19:06:53.027Z,1.97
2022-09-04T19:09:48.727Z,1.70
2022-09-04T19:12:24.852Z,2.00
2022-09-04T19:15:03.111Z,1.80
2022-09-04T19:17:34.387Z,1.80
2022-09-04T19:20:09.222Z,1.80
2022-09-04T19:22:42.644Z,2.10
2022-09-04T19:25:11.569Z,2.13
2022-09-04T19:27:38.268Z,1.90
2022-09-04T19:30:19.857Z,1.80
2022-09-04T19:32:56.813Z,1.87
2022-09-04T19:35:30.148Z,1.90
2022-09-04T19:42:54.340Z,2.10
2022-09-04T19:46:05.990Z,1.87
2022-09-04T19:46:15.503Z,1.87
2022-09-04T19:47:00.265Z,1.90
2022-09-04T19:51:09.366Z,2.80
2022-09-04T19:53:31.774Z,2.27
2022-09-04T19:55:24.634Z,2.60
2022-09-04T19:58:11.381Z,2.40
2022-09-04T20:00:44.484Z,2.77
2022-09-04T20:03:30.339Z,2.33
2022-09-04T20:06:21.138Z,2.20
2022-09-04T20:09:02.516Z,2.00
2022-09-04T20:11:36.309Z,2.00
2022-09-04T20:14:09.151Z,2.23
2022-09-04T20:16:48.391Z,1.87
2022-09-04T20:19:29.192Z,2.53
2022-09-04T20:22:07.793Z,2.00
2022-09-04T20:25:02.267Z,2.23
2022-09-04T20:27:38.503Z,2.43
2022-09-04T20:30:16.456Z,2.30
2022-09-04T20:32:55.692Z,2.33
2022-09-04T20:35:40.431Z,2.40
2022-09-04T20:38:22.841Z,2.30
2022-09-04T20:40:54.523Z,2.43
2022-09-04T20:43:28.872Z,2.63
2022-09-04T20:50:40.193Z,2.60
2022-09-04T20:52:41.573Z,2.47
2022-09-04T20:52:53.683Z,2.50
2022-09-04T20:54:40.441Z,2.80
2022-09-04T20:59:41.219Z,2.20
2022-09-04T21:03:19.608Z,2.30
2022-09-04T21:03:20.469Z,2.20
2022-09-04T21:06:10.411Z,2.40
2022-09-04T21:08:51.208Z,1.90
2022-09-04T21:11:41.075Z,2.70
2022-09-04T21:14:13.901Z,2.50
2022-09-04T21:16:40.627Z,2.40
2022-09-04T21:19:28.049Z,2.30
2022-09-04T21:22:28.977Z,2.90
2022-09-04T21:25:11.948Z,2.40
2022-09-04T21:28:10.308Z,2.47
2022-09-04T21:30:42.438Z,2.30
2022-09-04T21:33:27.738Z,2.10
2022-09-04T21:36:26.051Z,2.33
2022-09-04T21:38:56.986Z,2.10
2022-09-04T21:41:30.074Z,2.00
2022-09-04T21:44:11.109Z,2.10
2022-09-04T21:47:08.483Z,2.50
2022-09-04T21:49:47.629Z,2.00
2022-09-04T21:52:17.207Z,2.23
2022-09-04T21:57:28.858Z,2.00
2022-09-04T22:02:25.506Z,1.90
2022-09-04T22:02:48.050Z,2.20
2022-09-04T22:03:52.849Z,2.27
2022-09-04T22:06:29.282Z,1.90
2022-09-04T22:13:27.177Z,1.80
2022-09-04T22:13:46.657Z,2.13
2022-09-04T22:14:59.128Z,2.00
2022-09-04T22:17:35.580Z,1.80
2022-09-04T22:20:18.615Z,2.10
2022-09-04T22:22:53.213Z,2.03
2022-09-04T22:25:32.007Z,2.07
2022-09-04T22:28:09.685Z,1.90
2022-09-04T22:30:54.959Z,1.97
2022-09-04T22:33:32.496Z,2.53
2022-09-04T22:36:22.669Z,2.10
2022-09-04T22:38:59.875Z,1.83
2022-09-04T22:41:41.771Z,1.93
2022-09-04T22:44:27.008Z,2.20
2022-09-04T22:47:26.843Z,2.00
2022-09-04T22:50:12.232Z,2.40
2022-09-04T22:52:41.855Z,1.73
2022-09-04T22:55:38.575Z,2.23
2022-09-04T22:58:18.205Z,2.10
2022-09-04T23:00:54.306Z,1.97
2022-09-04T23:03:47.416Z,2.07
2022-09-04T23:11:32.082Z,2.10
2022-09-04T23:13:44.522Z,1.90
2022-09-04T23:13:58.479Z,1.80
2022-09-04T23:15:23.364Z,2.10
2022-09-04T23:18:00.893Z,1.83
2022-09-04T23:26:49.020Z,1.93
2022-09-04T23:26:52.627Z,2.10
2022-09-04T23:26:58.110Z,2.00
2022-09-04T23:29:44.796Z,1.97
2022-09-04T23:32:30.527Z,2.03
2022-09-04T23:35:14.798Z,2.03
2022-09-04T23:37:45.302Z,2.33
2022-09-04T23:40:35.284Z,2.17
2022-09-04T23:43:22.198Z,1.90
2022-09-04T23:46:01.352Z,2.23
2022-09-04T23:48:47.340Z,1.73
2022-09-04T23:51:26.463Z,2.00
2022-09-04T23:54:25.202Z,1.80
2022-09-04T23:57:26.622Z,1.93
2022-09-04T23:59:53.865Z,1.87
